首页
METAR-TAF:

METAR-TAF

机场 :

彭德-雅皮特國際機場

皮特尔角城, 瓜德罗普

纬度: 16-16N, 经度: 061-31W, 海拔: 11米

当前天气观测

该预报发布于18分钟前的18:00 UTC
风速5节,风向南转南东,在东转东南南转西南之间变化
温度 28°C
湿度 84%
气压 1015 hPa
能见度10公里或以上

METAR: TFFR 151800Z AUTO 16005KT 120V200 9999 FEW027/// SCT040/// BKN054/// ///CB 28/25 Q1015 TEMPO VRB15G25KT 1000 TSRA

时间: 14:18 (18:18 UTC)

预报

该预报发布于2小时和18分钟前的16:00 UTC
预报有效从15日的 18点(UTC)到 16日的 18点(UTC)
风速10节,风向
能见度10公里或以上
散云层高于3000英尺
短暂存在
从 15日的 18点(UTC)到 16日的 18点(UTC)
能見度: 4000
散云层高于1800英尺, 塔状积云.
阵雨
几率 30% :
短暂存在
从 15日的 18点(UTC)到 16日的 06点(UTC)
风速15节,风向多变,有时为25节阵风
能見度: 1000
散云层高于1500英尺, 积雨云.
雷暴, 雨
短暂存在
从 15日的 22点(UTC)到 16日的 11点(UTC)
风速3节,风向多变

TAF: TFFR 151600Z 1518/1618 10010KT 9999 SCT030 TEMPO 1518/1618 4000 SHRA SCT018TCU PROB30 TEMPO 1518/1606 VRB15G25KT 1000 TSRA SCT015CB TEMPO 1522/1611 VRB03KT

超过4000个机场的气象观测和天气预报(METAR&TAF报告)。

可查询的气象台以黄色和红色小点在地图上表示。

将鼠标移到小点上方,可查看气象台名称。

然后点击查看天气观测和预报。

如需切换地图:点击带黑十字的绿色按钮放大地图;点击带横线的绿色按钮缩小地图;或者点击绿色箭头查看邻近地区的地图。


METAR-TAF: